sensor_id;sensor_type;location;lat;lon;timestamp;P1;durP1;ratioP1;P2;durP2;ratioP2
5831;SDS011;50943;51.448;7.646;2023-03-11T00:01:14;5.80;;;3.30;;
5831;SDS011;50943;51.448;7.646;2023-03-11T00:03:41;6.73;;;3.97;;
5831;SDS011;50943;51.448;7.646;2023-03-11T00:06:08;9.10;;;4.00;;
5831;SDS011;50943;51.448;7.646;2023-03-11T00:08:34;5.30;;;3.73;;
5831;SDS011;50943;51.448;7.646;2023-03-11T00:11:01;6.00;;;3.67;;
5831;SDS011;50943;51.448;7.646;2023-03-11T00:13:28;5.30;;;3.30;;
5831;SDS011;50943;51.448;7.646;2023-03-11T00:15:56;6.23;;;3.67;;
5831;SDS011;50943;51.448;7.646;2023-03-11T00:18:25;7.70;;;3.63;;
5831;SDS011;50943;51.448;7.646;2023-03-11T00:20:55;5.43;;;3.50;;
5831;SDS011;50943;51.448;7.646;2023-03-11T00:23:23;6.10;;;4.03;;
5831;SDS011;50943;51.448;7.646;2023-03-11T00:25:50;7.83;;;4.57;;
5831;SDS011;50943;51.448;7.646;2023-03-11T00:28:17;5.83;;;3.60;;
5831;SDS011;50943;51.448;7.646;2023-03-11T00:30:46;7.33;;;4.27;;
5831;SDS011;50943;51.448;7.646;2023-03-11T00:33:13;7.50;;;4.10;;
5831;SDS011;50943;51.448;7.646;2023-03-11T00:35:42;7.03;;;4.27;;
5831;SDS011;50943;51.448;7.646;2023-03-11T00:38:10;7.87;;;3.97;;
5831;SDS011;50943;51.448;7.646;2023-03-11T00:40:39;8.80;;;4.30;;
5831;SDS011;50943;51.448;7.646;2023-03-11T00:43:06;7.30;;;4.43;;
5831;SDS011;50943;51.448;7.646;2023-03-11T00:45:35;6.47;;;3.90;;
5831;SDS011;50943;51.448;7.646;2023-03-11T00:48:02;7.03;;;4.20;;
5831;SDS011;50943;51.448;7.646;2023-03-11T00:50:31;8.30;;;3.80;;
5831;SDS011;50943;51.448;7.646;2023-03-11T00:53:03;5.77;;;3.70;;
5831;SDS011;50943;51.448;7.646;2023-03-11T00:55:31;5.50;;;3.50;;
5831;SDS011;50943;51.448;7.646;2023-03-11T00:57:59;5.57;;;3.37;;
5831;SDS011;50943;51.448;7.646;2023-03-11T01:00:27;7.60;;;3.37;;
5831;SDS011;50943;51.448;7.646;2023-03-11T01:02:54;5.60;;;3.53;;
5831;SDS011;50943;51.448;7.646;2023-03-11T01:05:24;6.17;;;3.80;;
5831;SDS011;50943;51.448;7.646;2023-03-11T01:07:51;8.00;;;4.10;;
5831;SDS011;50943;51.448;7.646;2023-03-11T01:10:19;5.70;;;3.20;;
5831;SDS011;50943;51.448;7.646;2023-03-11T01:12:46;5.40;;;3.17;;
5831;SDS011;50943;51.448;7.646;2023-03-11T01:15:15;7.70;;;4.03;;
5831;SDS011;50943;51.448;7.646;2023-03-11T01:17:44;8.60;;;4.50;;
5831;SDS011;50943;51.448;7.646;2023-03-11T01:20:11;6.37;;;3.70;;
5831;SDS011;50943;51.448;7.646;2023-03-11T01:22:37;10.50;;;4.10;;
5831;SDS011;50943;51.448;7.646;2023-03-11T01:25:04;6.73;;;3.80;;
5831;SDS011;50943;51.448;7.646;2023-03-11T01:27:32;6.20;;;3.73;;
5831;SDS011;50943;51.448;7.646;2023-03-11T01:29:59;5.60;;;3.20;;
5831;SDS011;50943;51.448;7.646;2023-03-11T01:32:27;8.47;;;3.60;;
5831;SDS011;50943;51.448;7.646;2023-03-11T01:34:54;5.77;;;3.50;;
5831;SDS011;50943;51.448;7.646;2023-03-11T01:37:29;7.67;;;3.70;;
5831;SDS011;50943;51.448;7.646;2023-03-11T01:39:55;8.20;;;3.60;;
5831;SDS011;50943;51.448;7.646;2023-03-11T01:42:22;7.13;;;3.90;;
5831;SDS011;50943;51.448;7.646;2023-03-11T01:44:50;9.07;;;3.23;;
5831;SDS011;50943;51.448;7.646;2023-03-11T01:47:33;11.87;;;3.50;;
5831;SDS011;50943;51.448;7.646;2023-03-11T01:50:05;6.40;;;3.27;;
5831;SDS011;50943;51.448;7.646;2023-03-11T01:52:34;9.63;;;3.13;;
5831;SDS011;50943;51.448;7.646;2023-03-11T01:55:01;7.67;;;3.50;;
5831;SDS011;50943;51.448;7.646;2023-03-11T01:57:27;7.03;;;3.53;;
5831;SDS011;50943;51.448;7.646;2023-03-11T01:59:56;8.70;;;4.00;;
5831;SDS011;50943;51.448;7.646;2023-03-11T02:02:24;6.80;;;3.73;;
5831;SDS011;50943;51.448;7.646;2023-03-11T02:04:54;9.70;;;4.23;;
5831;SDS011;50943;51.448;7.646;2023-03-11T02:07:20;7.33;;;3.93;;
5831;SDS011;50943;51.448;7.646;2023-03-11T02:09:47;8.33;;;3.70;;
5831;SDS011;50943;51.448;7.646;2023-03-11T02:12:14;7.70;;;3.43;;
5831;SDS011;50943;51.448;7.646;2023-03-11T02:14:41;8.83;;;3.53;;
5831;SDS011;50943;51.448;7.646;2023-03-11T02:17:11;9.53;;;3.70;;
5831;SDS011;50943;51.448;7.646;2023-03-11T02:19:40;10.00;;;3.73;;
5831;SDS011;50943;51.448;7.646;2023-03-11T02:22:18;9.37;;;3.70;;
5831;SDS011;50943;51.448;7.646;2023-03-11T02:24:45;6.23;;;3.40;;
5831;SDS011;50943;51.448;7.646;2023-03-11T02:27:17;13.50;;;3.00;;
5831;SDS011;50943;51.448;7.646;2023-03-11T02:29:44;7.80;;;3.77;;
5831;SDS011;50943;51.448;7.646;2023-03-11T02:32:14;9.80;;;3.63;;
5831;SDS011;50943;51.448;7.646;2023-03-11T02:34:40;7.60;;;3.67;;
5831;SDS011;50943;51.448;7.646;2023-03-11T02:37:07;11.50;;;3.47;;
5831;SDS011;50943;51.448;7.646;2023-03-11T02:39:36;7.70;;;3.37;;
5831;SDS011;50943;51.448;7.646;2023-03-11T02:42:06;8.40;;;3.50;;
5831;SDS011;50943;51.448;7.646;2023-03-11T02:44:42;7.93;;;3.10;;
5831;SDS011;50943;51.448;7.646;2023-03-11T02:47:09;8.73;;;3.07;;
5831;SDS011;50943;51.448;7.646;2023-03-11T02:49:36;9.57;;;3.60;;
5831;SDS011;50943;51.448;7.646;2023-03-11T02:52:03;9.43;;;4.53;;
5831;SDS011;50943;51.448;7.646;2023-03-11T02:54:31;10.00;;;3.80;;
5831;SDS011;50943;51.448;7.646;2023-03-11T02:56:59;10.53;;;4.33;;
5831;SDS011;50943;51.448;7.646;2023-03-11T02:59:26;13.67;;;5.37;;
5831;SDS011;50943;51.448;7.646;2023-03-11T03:01:54;12.77;;;5.40;;
5831;SDS011;50943;51.448;7.646;2023-03-11T03:04:21;9.13;;;4.30;;
5831;SDS011;50943;51.448;7.646;2023-03-11T03:06:47;9.17;;;4.63;;
5831;SDS011;50943;51.448;7.646;2023-03-11T03:09:14;7.17;;;3.80;;
5831;SDS011;50943;51.448;7.646;2023-03-11T03:11:40;9.17;;;4.00;;
5831;SDS011;50943;51.448;7.646;2023-03-11T03:14:07;8.23;;;4.07;;
5831;SDS011;50943;51.448;7.646;2023-03-11T03:16:34;12.10;;;4.30;;
5831;SDS011;50943;51.448;7.646;2023-03-11T03:19:01;6.70;;;3.53;;
5831;SDS011;50943;51.448;7.646;2023-03-11T03:21:28;6.50;;;3.53;;
5831;SDS011;50943;51.448;7.646;2023-03-11T03:23:55;7.63;;;3.40;;
5831;SDS011;50943;51.448;7.646;2023-03-11T03:26:21;5.60;;;3.00;;
5831;SDS011;50943;51.448;7.646;2023-03-11T03:28:48;7.43;;;3.10;;
5831;SDS011;50943;51.448;7.646;2023-03-11T03:31:15;15.67;;;3.03;;
5831;SDS011;50943;51.448;7.646;2023-03-11T03:33:43;11.47;;;3.10;;
5831;SDS011;50943;51.448;7.646;2023-03-11T03:36:14;5.77;;;3.20;;
5831;SDS011;50943;51.448;7.646;2023-03-11T03:38:41;7.43;;;3.33;;
5831;SDS011;50943;51.448;7.646;2023-03-11T03:41:07;10.00;;;4.90;;
5831;SDS011;50943;51.448;7.646;2023-03-11T03:43:34;13.17;;;4.13;;
5831;SDS011;50943;51.448;7.646;2023-03-11T03:46:02;8.40;;;5.03;;
5831;SDS011;50943;51.448;7.646;2023-03-11T03:48:29;8.60;;;5.10;;
5831;SDS011;50943;51.448;7.646;2023-03-11T03:50:56;9.60;;;4.60;;
5831;SDS011;50943;51.448;7.646;2023-03-11T03:53:31;10.37;;;4.93;;
5831;SDS011;50943;51.448;7.646;2023-03-11T03:56:00;7.90;;;4.13;;
5831;SDS011;50943;51.448;7.646;2023-03-11T03:58:28;15.83;;;5.10;;
5831;SDS011;50943;51.448;7.646;2023-03-11T04:00:54;6.83;;;4.17;;
5831;SDS011;50943;51.448;7.646;2023-03-11T04:03:22;11.30;;;4.80;;
5831;SDS011;50943;51.448;7.646;2023-03-11T04:05:48;10.90;;;4.60;;
5831;SDS011;50943;51.448;7.646;2023-03-11T04:08:15;10.90;;;4.50;;
5831;SDS011;50943;51.448;7.646;2023-03-11T04:10:43;10.67;;;4.33;;
5831;SDS011;50943;51.448;7.646;2023-03-11T04:13:10;14.13;;;4.67;;
5831;SDS011;50943;51.448;7.646;2023-03-11T04:15:36;11.83;;;5.30;;
5831;SDS011;50943;51.448;7.646;2023-03-11T04:18:05;14.70;;;4.90;;
5831;SDS011;50943;51.448;7.646;2023-03-11T04:20:32;8.57;;;4.90;;
5831;SDS011;50943;51.448;7.646;2023-03-11T04:22:58;13.87;;;4.67;;
5831;SDS011;50943;51.448;7.646;2023-03-11T04:25:25;6.90;;;4.53;;
5831;SDS011;50943;51.448;7.646;2023-03-11T04:27:55;12.30;;;4.70;;
5831;SDS011;50943;51.448;7.646;2023-03-11T04:30:22;9.20;;;4.53;;
5831;SDS011;50943;51.448;7.646;2023-03-11T04:32:48;9.30;;;4.87;;
5831;SDS011;50943;51.448;7.646;2023-03-11T04:35:15;12.80;;;5.27;;
5831;SDS011;50943;51.448;7.646;2023-03-11T04:37:42;9.50;;;4.17;;
5831;SDS011;50943;51.448;7.646;2023-03-11T04:40:09;7.83;;;4.17;;
5831;SDS011;50943;51.448;7.646;2023-03-11T04:42:36;21.63;;;4.47;;
5831;SDS011;50943;51.448;7.646;2023-03-11T04:45:05;10.87;;;4.20;;
5831;SDS011;50943;51.448;7.646;2023-03-11T04:47:32;18.17;;;4.50;;
5831;SDS011;50943;51.448;7.646;2023-03-11T04:50:00;10.40;;;4.30;;
5831;SDS011;50943;51.448;7.646;2023-03-11T04:52:28;11.33;;;3.60;;
5831;SDS011;50943;51.448;7.646;2023-03-11T04:54:55;14.70;;;3.90;;
5831;SDS011;50943;51.448;7.646;2023-03-11T04:57:21;9.73;;;4.23;;
5831;SDS011;50943;51.448;7.646;2023-03-11T04:59:48;10.30;;;4.00;;
5831;SDS011;50943;51.448;7.646;2023-03-11T05:02:16;8.40;;;3.40;;
5831;SDS011;50943;51.448;7.646;2023-03-11T05:04:42;8.60;;;3.77;;
5831;SDS011;50943;51.448;7.646;2023-03-11T05:07:09;9.63;;;4.00;;
5831;SDS011;50943;51.448;7.646;2023-03-11T05:09:36;9.50;;;3.40;;
5831;SDS011;50943;51.448;7.646;2023-03-11T05:12:03;12.13;;;3.60;;
5831;SDS011;50943;51.448;7.646;2023-03-11T05:14:30;9.27;;;3.40;;
5831;SDS011;50943;51.448;7.646;2023-03-11T05:16:57;11.60;;;3.47;;
5831;SDS011;50943;51.448;7.646;2023-03-11T05:19:25;9.60;;;3.57;;
5831;SDS011;50943;51.448;7.646;2023-03-11T05:21:59;6.00;;;3.20;;
5831;SDS011;50943;51.448;7.646;2023-03-11T05:24:26;13.27;;;3.83;;
5831;SDS011;50943;51.448;7.646;2023-03-11T05:26:53;6.40;;;3.00;;
5831;SDS011;50943;51.448;7.646;2023-03-11T05:29:20;6.40;;;2.93;;
5831;SDS011;50943;51.448;7.646;2023-03-11T05:31:47;5.87;;;2.40;;
5831;SDS011;50943;51.448;7.646;2023-03-11T05:34:13;7.67;;;3.20;;
5831;SDS011;50943;51.448;7.646;2023-03-11T05:36:41;11.30;;;3.20;;
5831;SDS011;50943;51.448;7.646;2023-03-11T05:39:08;7.70;;;3.03;;
5831;SDS011;50943;51.448;7.646;2023-03-11T05:41:35;9.87;;;3.30;;
5831;SDS011;50943;51.448;7.646;2023-03-11T05:44:02;11.87;;;3.17;;
5831;SDS011;50943;51.448;7.646;2023-03-11T05:46:29;9.23;;;3.00;;
5831;SDS011;50943;51.448;7.646;2023-03-11T05:48:56;9.23;;;2.90;;
5831;SDS011;50943;51.448;7.646;2023-03-11T05:51:24;9.43;;;3.17;;
5831;SDS011;50943;51.448;7.646;2023-03-11T05:53:53;7.63;;;3.27;;
5831;SDS011;50943;51.448;7.646;2023-03-11T05:56:21;10.20;;;3.10;;
5831;SDS011;50943;51.448;7.646;2023-03-11T05:58:48;8.50;;;2.80;;
5831;SDS011;50943;51.448;7.646;2023-03-11T06:01:17;7.60;;;2.57;;
5831;SDS011;50943;51.448;7.646;2023-03-11T06:03:44;7.30;;;2.50;;
5831;SDS011;50943;51.448;7.646;2023-03-11T06:06:11;9.37;;;2.83;;
5831;SDS011;50943;51.448;7.646;2023-03-11T06:08:38;12.77;;;2.93;;
5831;SDS011;50943;51.448;7.646;2023-03-11T06:11:11;7.90;;;2.67;;
5831;SDS011;50943;51.448;7.646;2023-03-11T06:13:38;5.37;;;2.80;;
5831;SDS011;50943;51.448;7.646;2023-03-11T06:16:05;10.20;;;2.80;;
5831;SDS011;50943;51.448;7.646;2023-03-11T06:18:32;10.20;;;2.90;;
5831;SDS011;50943;51.448;7.646;2023-03-11T06:20:59;8.93;;;3.00;;
5831;SDS011;50943;51.448;7.646;2023-03-11T06:23:26;7.37;;;3.00;;
5831;SDS011;50943;51.448;7.646;2023-03-11T06:25:55;11.37;;;2.60;;
5831;SDS011;50943;51.448;7.646;2023-03-11T06:28:23;11.90;;;3.50;;
5831;SDS011;50943;51.448;7.646;2023-03-11T06:30:50;7.67;;;2.40;;
5831;SDS011;50943;51.448;7.646;2023-03-11T06:33:17;17.00;;;2.90;;
5831;SDS011;50943;51.448;7.646;2023-03-11T06:35:43;8.00;;;3.10;;
5831;SDS011;50943;51.448;7.646;2023-03-11T06:38:10;7.33;;;2.83;;
5831;SDS011;50943;51.448;7.646;2023-03-11T06:40:36;8.73;;;2.70;;
5831;SDS011;50943;51.448;7.646;2023-03-11T06:43:03;11.37;;;2.70;;
5831;SDS011;50943;51.448;7.646;2023-03-11T06:45:31;9.33;;;2.87;;
5831;SDS011;50943;51.448;7.646;2023-03-11T06:47:57;8.77;;;4.13;;
5831;SDS011;50943;51.448;7.646;2023-03-11T06:50:24;5.90;;;2.57;;
5831;SDS011;50943;51.448;7.646;2023-03-11T06:52:51;13.70;;;3.33;;
5831;SDS011;50943;51.448;7.646;2023-03-11T06:55:18;8.50;;;3.00;;
5831;SDS011;50943;51.448;7.646;2023-03-11T06:57:45;11.97;;;2.97;;
5831;SDS011;50943;51.448;7.646;2023-03-11T07:00:12;17.30;;;3.27;;
5831;SDS011;50943;51.448;7.646;2023-03-11T07:02:41;5.63;;;2.77;;
5831;SDS011;50943;51.448;7.646;2023-03-11T07:05:08;9.70;;;2.93;;
5831;SDS011;50943;51.448;7.646;2023-03-11T07:07:36;6.03;;;2.63;;
5831;SDS011;50943;51.448;7.646;2023-03-11T07:10:04;5.47;;;3.10;;
5831;SDS011;50943;51.448;7.646;2023-03-11T07:12:31;8.13;;;2.80;;
5831;SDS011;50943;51.448;7.646;2023-03-11T07:14:58;6.23;;;2.60;;
5831;SDS011;50943;51.448;7.646;2023-03-11T07:17:25;9.20;;;2.67;;
5831;SDS011;50943;51.448;7.646;2023-03-11T07:19:53;9.60;;;2.37;;
5831;SDS011;50943;51.448;7.646;2023-03-11T07:22:20;12.27;;;3.20;;
5831;SDS011;50943;51.448;7.646;2023-03-11T07:24:47;5.50;;;2.40;;
5831;SDS011;50943;51.448;7.646;2023-03-11T07:27:17;10.20;;;3.50;;
5831;SDS011;50943;51.448;7.646;2023-03-11T07:29:43;6.27;;;2.63;;
5831;SDS011;50943;51.448;7.646;2023-03-11T07:32:10;8.60;;;2.63;;
5831;SDS011;50943;51.448;7.646;2023-03-11T07:34:36;4.37;;;2.47;;
5831;SDS011;50943;51.448;7.646;2023-03-11T07:37:04;10.60;;;2.70;;
5831;SDS011;50943;51.448;7.646;2023-03-11T07:39:31;6.13;;;2.67;;
5831;SDS011;50943;51.448;7.646;2023-03-11T07:41:57;6.40;;;2.60;;
5831;SDS011;50943;51.448;7.646;2023-03-11T07:44:24;8.47;;;2.43;;
5831;SDS011;50943;51.448;7.646;2023-03-11T07:46:50;8.30;;;2.17;;
5831;SDS011;50943;51.448;7.646;2023-03-11T07:49:17;8.27;;;2.60;;
5831;SDS011;50943;51.448;7.646;2023-03-11T07:51:45;10.60;;;3.43;;
5831;SDS011;50943;51.448;7.646;2023-03-11T07:54:12;7.63;;;2.83;;
5831;SDS011;50943;51.448;7.646;2023-03-11T07:56:39;10.00;;;2.90;;
5831;SDS011;50943;51.448;7.646;2023-03-11T07:59:06;7.73;;;2.23;;
5831;SDS011;50943;51.448;7.646;2023-03-11T08:01:32;6.60;;;1.80;;
5831;SDS011;50943;51.448;7.646;2023-03-11T08:04:01;8.93;;;2.30;;
5831;SDS011;50943;51.448;7.646;2023-03-11T08:06:30;5.93;;;2.50;;
5831;SDS011;50943;51.448;7.646;2023-03-11T08:08:57;9.00;;;2.60;;
5831;SDS011;50943;51.448;7.646;2023-03-11T08:11:26;8.67;;;2.20;;
5831;SDS011;50943;51.448;7.646;2023-03-11T08:13:53;8.27;;;2.63;;
5831;SDS011;50943;51.448;7.646;2023-03-11T08:16:22;7.23;;;2.70;;
5831;SDS011;50943;51.448;7.646;2023-03-11T08:18:49;7.53;;;2.10;;
5831;SDS011;50943;51.448;7.646;2023-03-11T08:21:18;7.60;;;2.13;;
5831;SDS011;50943;51.448;7.646;2023-03-11T08:23:46;8.43;;;1.90;;
5831;SDS011;50943;51.448;7.646;2023-03-11T08:26:13;4.83;;;2.43;;
5831;SDS011;50943;51.448;7.646;2023-03-11T08:28:42;6.57;;;2.63;;
5831;SDS011;50943;51.448;7.646;2023-03-11T08:31:12;5.13;;;1.77;;
5831;SDS011;50943;51.448;7.646;2023-03-11T08:33:40;9.10;;;2.83;;
5831;SDS011;50943;51.448;7.646;2023-03-11T08:36:07;9.33;;;2.43;;
5831;SDS011;50943;51.448;7.646;2023-03-11T08:38:35;8.33;;;2.10;;
5831;SDS011;50943;51.448;7.646;2023-03-11T08:41:04;9.83;;;2.60;;
5831;SDS011;50943;51.448;7.646;2023-03-11T08:43:33;8.40;;;3.13;;
5831;SDS011;50943;51.448;7.646;2023-03-11T08:46:01;8.97;;;2.83;;
5831;SDS011;50943;51.448;7.646;2023-03-11T08:48:28;5.17;;;2.10;;
5831;SDS011;50943;51.448;7.646;2023-03-11T08:50:55;6.87;;;2.03;;
5831;SDS011;50943;51.448;7.646;2023-03-11T08:53:21;12.23;;;3.03;;
5831;SDS011;50943;51.448;7.646;2023-03-11T08:55:48;12.00;;;2.50;;
5831;SDS011;50943;51.448;7.646;2023-03-11T08:58:14;6.30;;;2.80;;
5831;SDS011;50943;51.448;7.646;2023-03-11T09:00:41;6.80;;;2.43;;
5831;SDS011;50943;51.448;7.646;2023-03-11T09:03:09;8.53;;;2.70;;
5831;SDS011;50943;51.448;7.646;2023-03-11T09:05:35;4.40;;;1.80;;
5831;SDS011;50943;51.448;7.646;2023-03-11T09:08:02;6.53;;;1.87;;
5831;SDS011;50943;51.448;7.646;2023-03-11T09:10:29;5.10;;;1.50;;
5831;SDS011;50943;51.448;7.646;2023-03-11T09:12:55;3.27;;;1.50;;
5831;SDS011;50943;51.448;7.646;2023-03-11T09:15:22;4.60;;;1.80;;
5831;SDS011;50943;51.448;7.646;2023-03-11T09:17:49;4.73;;;1.80;;
5831;SDS011;50943;51.448;7.646;2023-03-11T09:20:16;5.37;;;1.33;;
5831;SDS011;50943;51.448;7.646;2023-03-11T09:22:43;5.53;;;1.60;;
5831;SDS011;50943;51.448;7.646;2023-03-11T09:25:10;4.27;;;1.57;;
5831;SDS011;50943;51.448;7.646;2023-03-11T09:27:38;4.60;;;1.53;;
5831;SDS011;50943;51.448;7.646;2023-03-11T09:30:05;5.07;;;1.97;;
5831;SDS011;50943;51.448;7.646;2023-03-11T09:32:33;8.47;;;2.17;;
5831;SDS011;50943;51.448;7.646;2023-03-11T09:34:59;5.90;;;1.70;;
5831;SDS011;50943;51.448;7.646;2023-03-11T09:37:27;4.37;;;1.30;;
5831;SDS011;50943;51.448;7.646;2023-03-11T09:39:54;7.93;;;1.80;;
5831;SDS011;50943;51.448;7.646;2023-03-11T09:42:23;8.53;;;1.60;;
5831;SDS011;50943;51.448;7.646;2023-03-11T09:44:53;5.63;;;1.80;;
5831;SDS011;50943;51.448;7.646;2023-03-11T09:47:29;3.93;;;1.80;;
5831;SDS011;50943;51.448;7.646;2023-03-11T09:50:08;8.30;;;1.30;;
5831;SDS011;50943;51.448;7.646;2023-03-11T09:52:43;5.40;;;1.33;;
5831;SDS011;50943;51.448;7.646;2023-03-11T09:55:20;3.93;;;1.30;;
5831;SDS011;50943;51.448;7.646;2023-03-11T09:58:02;2.70;;;1.13;;
5831;SDS011;50943;51.448;7.646;2023-03-11T10:00:32;4.40;;;1.20;;
5831;SDS011;50943;51.448;7.646;2023-03-11T10:03:00;4.30;;;1.50;;
5831;SDS011;50943;51.448;7.646;2023-03-11T10:05:28;4.90;;;1.00;;
5831;SDS011;50943;51.448;7.646;2023-03-11T10:07:58;4.47;;;1.17;;
5831;SDS011;50943;51.448;7.646;2023-03-11T10:10:28;5.83;;;1.20;;
5831;SDS011;50943;51.448;7.646;2023-03-11T10:12:59;7.90;;;2.50;;
5831;SDS011;50943;51.448;7.646;2023-03-11T10:15:33;4.67;;;1.60;;
5831;SDS011;50943;51.448;7.646;2023-03-11T10:18:08;7.00;;;1.17;;
5831;SDS011;50943;51.448;7.646;2023-03-11T10:20:45;5.70;;;1.40;;
5831;SDS011;50943;51.448;7.646;2023-03-11T10:23:20;5.03;;;1.53;;
5831;SDS011;50943;51.448;7.646;2023-03-11T10:25:53;13.33;;;6.70;;
5831;SDS011;50943;51.448;7.646;2023-03-11T10:28:24;3.17;;;1.33;;
5831;SDS011;50943;51.448;7.646;2023-03-11T10:30:54;2.70;;;1.03;;
5831;SDS011;50943;51.448;7.646;2023-03-11T10:33:23;4.50;;;1.20;;
5831;SDS011;50943;51.448;7.646;2023-03-11T10:35:55;9.60;;;3.37;;
5831;SDS011;50943;51.448;7.646;2023-03-11T10:38:26;5.13;;;1.70;;
5831;SDS011;50943;51.448;7.646;2023-03-11T10:40:56;5.63;;;1.10;;
5831;SDS011;50943;51.448;7.646;2023-03-11T10:43:26;4.63;;;1.30;;
5831;SDS011;50943;51.448;7.646;2023-03-11T10:45:54;3.50;;;1.10;;
5831;SDS011;50943;51.448;7.646;2023-03-11T10:48:21;2.17;;;1.03;;
5831;SDS011;50943;51.448;7.646;2023-03-11T10:50:50;3.27;;;1.07;;
5831;SDS011;50943;51.448;7.646;2023-03-11T10:53:20;3.97;;;2.20;;
5831;SDS011;50943;51.448;7.646;2023-03-11T10:55:49;3.27;;;1.00;;
5831;SDS011;50943;51.448;7.646;2023-03-11T10:58:17;3.87;;;1.20;;
5831;SDS011;50943;51.448;7.646;2023-03-11T11:00:45;3.30;;;1.30;;
5831;SDS011;50943;51.448;7.646;2023-03-11T11:03:24;6.07;;;1.57;;
5831;SDS011;50943;51.448;7.646;2023-03-11T11:05:56;2.60;;;1.37;;
5831;SDS011;50943;51.448;7.646;2023-03-11T11:08:24;5.97;;;1.40;;
5831;SDS011;50943;51.448;7.646;2023-03-11T11:10:52;3.40;;;1.53;;
5831;SDS011;50943;51.448;7.646;2023-03-11T11:13:20;3.23;;;1.20;;
5831;SDS011;50943;51.448;7.646;2023-03-11T11:15:55;5.70;;;1.37;;
5831;SDS011;50943;51.448;7.646;2023-03-11T11:18:24;3.50;;;1.30;;
5831;SDS011;50943;51.448;7.646;2023-03-11T11:20:53;4.23;;;1.20;;
5831;SDS011;50943;51.448;7.646;2023-03-11T11:23:24;2.40;;;1.00;;
5831;SDS011;50943;51.448;7.646;2023-03-11T11:25:56;3.70;;;1.10;;
5831;SDS011;50943;51.448;7.646;2023-03-11T11:28:23;7.03;;;1.07;;
5831;SDS011;50943;51.448;7.646;2023-03-11T11:30:51;10.53;;;1.43;;
5831;SDS011;50943;51.448;7.646;2023-03-11T11:33:23;4.27;;;1.00;;
5831;SDS011;50943;51.448;7.646;2023-03-11T11:35:52;6.30;;;2.30;;
5831;SDS011;50943;51.448;7.646;2023-03-11T11:38:21;5.27;;;1.03;;
5831;SDS011;50943;51.448;7.646;2023-03-11T11:40:49;3.67;;;1.00;;
5831;SDS011;50943;51.448;7.646;2023-03-11T11:43:18;4.60;;;1.33;;
5831;SDS011;50943;51.448;7.646;2023-03-11T11:45:45;5.43;;;1.37;;
5831;SDS011;50943;51.448;7.646;2023-03-11T11:48:16;2.73;;;1.10;;
5831;SDS011;50943;51.448;7.646;2023-03-11T11:50:46;3.10;;;1.30;;
5831;SDS011;50943;51.448;7.646;2023-03-11T11:53:22;3.47;;;1.47;;
5831;SDS011;50943;51.448;7.646;2023-03-11T11:55:53;2.37;;;0.90;;
5831;SDS011;50943;51.448;7.646;2023-03-11T11:58:21;4.53;;;1.10;;
5831;SDS011;50943;51.448;7.646;2023-03-11T12:01:00;3.43;;;1.00;;
5831;SDS011;50943;51.448;7.646;2023-03-11T12:03:43;2.00;;;0.97;;
5831;SDS011;50943;51.448;7.646;2023-03-11T12:06:19;3.33;;;1.17;;
5831;SDS011;50943;51.448;7.646;2023-03-11T12:08:50;4.67;;;1.33;;
5831;SDS011;50943;51.448;7.646;2023-03-11T12:11:25;3.70;;;1.13;;
5831;SDS011;50943;51.448;7.646;2023-03-11T12:13:58;4.33;;;1.40;;
5831;SDS011;50943;51.448;7.646;2023-03-11T12:16:33;4.97;;;1.50;;
5831;SDS011;50943;51.448;7.646;2023-03-11T12:19:09;4.53;;;1.10;;
5831;SDS011;50943;51.448;7.646;2023-03-11T12:21:45;3.83;;;1.27;;
5831;SDS011;50943;51.448;7.646;2023-03-11T12:24:26;4.03;;;1.03;;
5831;SDS011;50943;51.448;7.646;2023-03-11T12:27:00;3.30;;;1.30;;
5831;SDS011;50943;51.448;7.646;2023-03-11T12:29:30;3.43;;;1.23;;
5831;SDS011;50943;51.448;7.646;2023-03-11T12:32:00;3.90;;;1.20;;
5831;SDS011;50943;51.448;7.646;2023-03-11T12:34:27;3.70;;;1.10;;
5831;SDS011;50943;51.448;7.646;2023-03-11T12:36:55;3.60;;;1.40;;
5831;SDS011;50943;51.448;7.646;2023-03-11T12:39:26;5.87;;;1.60;;
5831;SDS011;50943;51.448;7.646;2023-03-11T12:44:45;3.20;;;0.93;;
5831;SDS011;50943;51.448;7.646;2023-03-11T12:49:51;3.40;;;1.13;;
5831;SDS011;50943;51.448;7.646;2023-03-11T12:52:26;4.87;;;1.23;;
5831;SDS011;50943;51.448;7.646;2023-03-11T12:57:52;7.07;;;1.30;;
5831;SDS011;50943;51.448;7.646;2023-03-11T13:00:32;6.20;;;1.27;;
5831;SDS011;50943;51.448;7.646;2023-03-11T13:06:10;4.70;;;1.00;;
5831;SDS011;50943;51.448;7.646;2023-03-11T13:08:44;5.63;;;1.00;;
5831;SDS011;50943;51.448;7.646;2023-03-11T13:11:28;2.67;;;1.40;;
5831;SDS011;50943;51.448;7.646;2023-03-11T13:14:08;6.07;;;0.90;;
5831;SDS011;50943;51.448;7.646;2023-03-11T13:16:48;3.03;;;1.00;;
5831;SDS011;50943;51.448;7.646;2023-03-11T13:22:04;5.83;;;1.07;;
5831;SDS011;50943;51.448;7.646;2023-03-11T13:24:48;3.70;;;1.43;;
5831;SDS011;50943;51.448;7.646;2023-03-11T13:27:33;6.43;;;1.10;;
5831;SDS011;50943;51.448;7.646;2023-03-11T13:30:07;4.23;;;1.00;;
5831;SDS011;50943;51.448;7.646;2023-03-11T13:32:44;5.57;;;1.73;;
5831;SDS011;50943;51.448;7.646;2023-03-11T13:35:23;4.93;;;1.10;;
5831;SDS011;50943;51.448;7.646;2023-03-11T13:38:11;2.80;;;0.90;;
5831;SDS011;50943;51.448;7.646;2023-03-11T13:40:43;5.10;;;1.00;;
5831;SDS011;50943;51.448;7.646;2023-03-11T13:43:11;8.53;;;1.50;;
5831;SDS011;50943;51.448;7.646;2023-03-11T13:45:40;3.87;;;1.00;;
5831;SDS011;50943;51.448;7.646;2023-03-11T13:48:15;6.10;;;1.00;;
5831;SDS011;50943;51.448;7.646;2023-03-11T13:50:44;3.47;;;1.10;;
5831;SDS011;50943;51.448;7.646;2023-03-11T13:53:15;4.00;;;1.07;;
5831;SDS011;50943;51.448;7.646;2023-03-11T13:55:44;3.23;;;1.20;;
5831;SDS011;50943;51.448;7.646;2023-03-11T13:58:15;2.70;;;1.00;;
5831;SDS011;50943;51.448;7.646;2023-03-11T14:00:45;3.23;;;0.90;;
5831;SDS011;50943;51.448;7.646;2023-03-11T14:03:16;4.80;;;0.90;;
5831;SDS011;50943;51.448;7.646;2023-03-11T14:05:46;11.57;;;1.30;;
5831;SDS011;50943;51.448;7.646;2023-03-11T14:08:17;2.90;;;1.00;;
5831;SDS011;50943;51.448;7.646;2023-03-11T14:10:52;3.70;;;1.07;;
5831;SDS011;50943;51.448;7.646;2023-03-11T14:13:20;3.10;;;1.73;;
5831;SDS011;50943;51.448;7.646;2023-03-11T14:15:50;2.07;;;0.97;;
5831;SDS011;50943;51.448;7.646;2023-03-11T14:18:28;4.43;;;1.30;;
5831;SDS011;50943;51.448;7.646;2023-03-11T14:20:57;3.17;;;1.00;;
5831;SDS011;50943;51.448;7.646;2023-03-11T14:23:28;2.33;;;0.90;;
5831;SDS011;50943;51.448;7.646;2023-03-11T14:25:57;1.70;;;0.90;;
5831;SDS011;50943;51.448;7.646;2023-03-11T14:28:27;2.73;;;1.00;;
5831;SDS011;50943;51.448;7.646;2023-03-11T14:30:57;4.37;;;1.20;;
5831;SDS011;50943;51.448;7.646;2023-03-11T14:33:27;2.17;;;1.23;;
5831;SDS011;50943;51.448;7.646;2023-03-11T14:35:54;5.00;;;1.20;;
5831;SDS011;50943;51.448;7.646;2023-03-11T14:38:22;3.20;;;1.07;;
5831;SDS011;50943;51.448;7.646;2023-03-11T14:40:49;2.90;;;1.00;;
5831;SDS011;50943;51.448;7.646;2023-03-11T14:43:19;2.40;;;1.10;;
5831;SDS011;50943;51.448;7.646;2023-03-11T14:45:46;1.83;;;1.10;;
5831;SDS011;50943;51.448;7.646;2023-03-11T14:48:14;3.00;;;1.10;;
5831;SDS011;50943;51.448;7.646;2023-03-11T14:50:45;3.30;;;1.23;;
5831;SDS011;50943;51.448;7.646;2023-03-11T14:53:14;2.47;;;1.50;;
5831;SDS011;50943;51.448;7.646;2023-03-11T14:55:43;3.00;;;1.20;;
5831;SDS011;50943;51.448;7.646;2023-03-11T14:58:16;3.97;;;1.60;;
5831;SDS011;50943;51.448;7.646;2023-03-11T15:00:47;3.80;;;1.00;;
5831;SDS011;50943;51.448;7.646;2023-03-11T15:03:18;2.80;;;1.00;;
5831;SDS011;50943;51.448;7.646;2023-03-11T15:05:51;1.50;;;0.80;;
5831;SDS011;50943;51.448;7.646;2023-03-11T15:08:20;1.67;;;0.90;;
5831;SDS011;50943;51.448;7.646;2023-03-11T15:11:00;2.23;;;0.90;;
5831;SDS011;50943;51.448;7.646;2023-03-11T15:13:29;5.90;;;1.30;;
5831;SDS011;50943;51.448;7.646;2023-03-11T15:15:56;2.93;;;1.20;;
5831;SDS011;50943;51.448;7.646;2023-03-11T15:18:24;2.50;;;1.07;;
5831;SDS011;50943;51.448;7.646;2023-03-11T15:21:10;3.17;;;1.23;;
5831;SDS011;50943;51.448;7.646;2023-03-11T15:23:38;4.30;;;1.70;;
5831;SDS011;50943;51.448;7.646;2023-03-11T15:26:15;4.97;;;1.60;;